createdAt,value
2023-02-02T00:01:33.695Z,2.22
2023-02-02T00:04:01.248Z,1.97
2023-02-02T00:12:18.597Z,1.30
2023-02-02T00:14:45.325Z,1.16
2023-02-02T00:17:13.232Z,1.12
2023-02-02T00:19:40.116Z,1.02
2023-02-02T00:22:07.067Z,1.05
2023-02-02T00:24:34.728Z,1.10
2023-02-02T00:27:01.430Z,0.97
2023-02-02T00:29:31.569Z,0.95
2023-02-02T00:31:58.626Z,0.92
2023-02-02T00:34:26.130Z,0.89
2023-02-02T00:36:56.696Z,0.89
2023-02-02T00:39:25.732Z,0.89
2023-02-02T00:41:55.402Z,0.91
2023-02-02T00:44:23.264Z,0.87
2023-02-02T00:46:49.995Z,0.92
2023-02-02T00:49:17.158Z,0.86
2023-02-02T00:51:47.690Z,0.89
2023-02-02T00:54:15.154Z,0.86
2023-02-02T00:56:42.805Z,0.93
2023-02-02T00:59:11.739Z,0.96
2023-02-02T01:01:38.535Z,0.98
2023-02-02T01:04:09.766Z,0.96
2023-02-02T01:06:37.138Z,1.00
2023-02-02T01:09:10.257Z,0.98
2023-02-02T01:12:05.730Z,0.93
2023-02-02T01:14:32.659Z,0.91
2023-02-02T01:16:59.423Z,0.83
2023-02-02T01:19:27.332Z,0.86
2023-02-02T01:21:58.192Z,0.82
2023-02-02T01:24:25.167Z,0.81
2023-02-02T01:26:52.745Z,0.75
2023-02-02T01:29:20.199Z,0.68
2023-02-02T01:31:47.895Z,0.72
2023-02-02T01:34:15.639Z,0.62
2023-02-02T01:36:44.395Z,0.66
2023-02-02T01:42:06.839Z,0.76
2023-02-02T01:44:52.670Z,0.81
2023-02-02T01:47:27.313Z,0.84
2023-02-02T01:49:56.109Z,0.90
2023-02-02T01:52:26.521Z,0.93
2023-02-02T01:54:58.039Z,0.99
2023-02-02T01:58:04.921Z,1.03
2023-02-02T02:00:31.896Z,1.02
2023-02-02T02:03:07.869Z,1.01
2023-02-02T02:05:42.960Z,1.00
2023-02-02T02:08:21.728Z,1.07
2023-02-02T02:10:48.715Z,1.04
2023-02-02T02:13:17.033Z,1.03
2023-02-02T02:16:32.673Z,1.03
2023-02-02T02:19:10.293Z,1.04
2023-02-02T02:25:12.743Z,1.06
2023-02-02T02:28:13.278Z,1.07
2023-02-02T02:34:15.372Z,1.11
2023-02-02T02:37:12.863Z,1.10
2023-02-02T02:40:07.014Z,1.09
2023-02-02T02:42:41.690Z,1.15
2023-02-02T02:45:38.832Z,1.12
2023-02-02T02:48:08.591Z,1.14
2023-02-02T02:50:35.371Z,1.12
2023-02-02T02:53:08.095Z,1.12
2023-02-02T02:55:50.243Z,1.10
2023-02-02T02:58:28.375Z,1.06
2023-02-02T03:01:07.646Z,1.03
2023-02-02T03:04:16.524Z,1.05
2023-02-02T03:06:49.847Z,1.10
2023-02-02T03:09:27.018Z,1.12
2023-02-02T03:11:56.412Z,1.01
2023-02-02T03:14:23.298Z,1.04
2023-02-02T03:16:52.367Z,1.02
2023-02-02T03:19:19.536Z,1.12
2023-02-02T03:21:46.349Z,1.12
2023-02-02T03:24:13.219Z,1.18
2023-02-02T03:26:40.221Z,1.18
2023-02-02T03:29:06.988Z,1.24
2023-02-02T03:31:33.970Z,1.28
2023-02-02T03:34:00.740Z,1.27
2023-02-02T03:36:27.561Z,1.39
2023-02-02T03:38:54.298Z,1.38
2023-02-02T03:41:21.120Z,1.36
2023-02-02T03:43:48.419Z,1.38
2023-02-02T03:46:15.280Z,1.39
2023-02-02T03:48:42.163Z,1.40
2023-02-02T03:51:12.262Z,1.39
2023-02-02T03:53:40.735Z,1.45
2023-02-02T03:56:07.792Z,1.36
2023-02-02T03:58:34.571Z,1.37
2023-02-02T04:01:06.731Z,1.37
2023-02-02T04:03:34.311Z,1.34
2023-02-02T04:06:01.331Z,1.33
2023-02-02T04:08:28.551Z,1.32
2023-02-02T04:10:55.336Z,1.31
2023-02-02T04:13:23.479Z,1.29
2023-02-02T04:18:51.799Z,1.32
2023-02-02T04:21:18.636Z,1.29
2023-02-02T04:23:45.355Z,1.24
2023-02-02T04:26:14.255Z,1.26
2023-02-02T04:28:41.218Z,1.25
2023-02-02T04:31:08.099Z,1.25
2023-02-02T04:33:35.678Z,1.25
2023-02-02T04:36:02.535Z,1.35
2023-02-02T04:38:29.316Z,1.37
2023-02-02T04:40:56.737Z,1.46
2023-02-02T04:43:23.469Z,1.38
2023-02-02T04:45:56.121Z,1.43
2023-02-02T04:48:23.757Z,1.47
2023-02-02T04:50:51.166Z,1.51
2023-02-02T04:53:17.873Z,1.51
2023-02-02T04:55:45.743Z,1.59
2023-02-02T04:58:12.471Z,1.63
2023-02-02T05:00:39.250Z,1.62
2023-02-02T05:06:24.412Z,1.70
2023-02-02T05:08:52.880Z,1.70
2023-02-02T05:11:22.579Z,1.68
2023-02-02T05:17:10.736Z,1.74
2023-02-02T05:19:39.232Z,1.67
2023-02-02T05:22:06.044Z,1.68
2023-02-02T05:24:34.310Z,1.65
2023-02-02T05:27:01.131Z,1.62
2023-02-02T05:29:28.743Z,1.65
2023-02-02T05:31:55.567Z,1.69
2023-02-02T05:34:23.581Z,1.68
2023-02-02T05:36:52.815Z,1.69
2023-02-02T05:39:19.786Z,1.67
2023-02-02T05:42:11.876Z,1.68
2023-02-02T05:44:38.655Z,1.66
2023-02-02T05:47:06.931Z,1.64
2023-02-02T05:49:33.676Z,1.67
2023-02-02T05:52:02.411Z,1.62
2023-02-02T05:54:35.457Z,1.65
2023-02-02T05:57:05.693Z,1.59
2023-02-02T05:59:32.570Z,1.63
2023-02-02T06:02:00.199Z,1.66
2023-02-02T06:04:30.279Z,1.74
2023-02-02T06:06:57.796Z,1.66
2023-02-02T06:09:25.230Z,1.71
2023-02-02T06:14:45.772Z,1.64
2023-02-02T06:17:12.654Z,1.65
2023-02-02T06:19:39.366Z,1.64
2023-02-02T06:24:58.805Z,1.57
2023-02-02T06:27:29.185Z,1.64
2023-02-02T06:29:57.300Z,1.58
2023-02-02T06:32:24.121Z,1.62
2023-02-02T06:34:50.859Z,1.62
2023-02-02T06:37:17.740Z,1.68
2023-02-02T06:39:44.458Z,1.64
2023-02-02T06:42:36.953Z,1.64
2023-02-02T06:45:05.169Z,1.73
2023-02-02T06:47:35.261Z,1.67
2023-02-02T06:50:04.077Z,1.66
2023-02-02T06:52:31.781Z,1.71
2023-02-02T06:54:58.643Z,1.70
2023-02-02T06:57:25.491Z,1.80
2023-02-02T06:59:52.304Z,1.79
2023-02-02T07:02:19.174Z,1.79
2023-02-02T07:04:46.525Z,1.82
2023-02-02T07:07:14.223Z,1.85
2023-02-02T07:09:41.086Z,1.90
2023-02-02T07:12:07.955Z,1.91
2023-02-02T07:14:34.705Z,1.99
2023-02-02T07:17:01.797Z,2.00
2023-02-02T07:19:29.024Z,2.02
2023-02-02T07:21:55.907Z,1.98
2023-02-02T07:24:23.228Z,2.01
2023-02-02T07:26:53.810Z,2.01
2023-02-02T07:29:23.913Z,2.02
2023-02-02T07:32:15.893Z,2.01
2023-02-02T07:34:43.917Z,1.99
2023-02-02T07:37:10.677Z,2.04
2023-02-02T07:39:37.519Z,2.03
2023-02-02T07:42:04.364Z,2.05
2023-02-02T07:44:36.387Z,2.08
2023-02-02T07:47:05.825Z,2.10
2023-02-02T07:49:32.579Z,2.13
2023-02-02T07:51:59.354Z,2.13
2023-02-02T07:54:29.401Z,2.15
2023-02-02T07:56:57.310Z,2.18
2023-02-02T07:59:24.037Z,2.15
2023-02-02T08:01:51.128Z,2.24
2023-02-02T08:04:17.848Z,2.26
2023-02-02T08:06:45.445Z,2.27
2023-02-02T08:09:14.837Z,2.25
2023-02-02T08:11:41.660Z,2.29
2023-02-02T08:14:11.812Z,2.31
2023-02-02T08:16:39.291Z,2.31
2023-02-02T08:19:06.051Z,2.28
2023-02-02T08:21:37.968Z,2.32
2023-02-02T08:24:05.385Z,2.32
2023-02-02T08:26:32.934Z,2.34
2023-02-02T08:29:08.045Z,2.40
2023-02-02T08:31:38.919Z,2.40
2023-02-02T08:34:06.329Z,2.36
2023-02-02T08:36:57.691Z,2.37
2023-02-02T08:39:24.582Z,2.37
2023-02-02T08:45:59.402Z,2.40
2023-02-02T08:47:30.115Z,2.43
2023-02-02T08:49:57.767Z,2.42
2023-02-02T08:52:49.548Z,2.44
2023-02-02T08:55:20.445Z,2.48
2023-02-02T08:57:47.364Z,2.55
2023-02-02T09:00:14.684Z,2.55
2023-02-02T09:02:45.773Z,2.56
2023-02-02T09:05:14.399Z,2.58
2023-02-02T09:07:44.810Z,2.56
2023-02-02T09:10:13.414Z,2.57
2023-02-02T09:12:40.801Z,2.58
2023-02-02T09:15:09.635Z,2.57
2023-02-02T09:20:34.475Z,2.56
2023-02-02T09:23:03.323Z,2.58
2023-02-02T09:25:30.824Z,2.60
2023-02-02T09:27:57.565Z,2.64
2023-02-02T09:30:24.386Z,2.59
2023-02-02T09:32:51.464Z,2.66
2023-02-02T09:35:18.190Z,2.65
2023-02-02T09:37:45.388Z,2.66
2023-02-02T09:40:18.059Z,2.62
2023-02-02T09:42:51.791Z,2.62
2023-02-02T09:45:26.233Z,2.63
2023-02-02T09:48:03.522Z,2.66
2023-02-02T09:51:01.037Z,2.71
2023-02-02T09:53:54.694Z,2.70
2023-02-02T09:56:43.611Z,2.77
2023-02-02T09:59:24.246Z,2.74
2023-02-02T10:02:39.670Z,2.77
2023-02-02T10:05:15.711Z,2.79
2023-02-02T10:07:46.319Z,2.80
2023-02-02T10:10:21.669Z,2.79
2023-02-02T10:13:31.247Z,2.84
2023-02-02T10:16:08.832Z,2.86
2023-02-02T10:18:56.507Z,2.82
2023-02-02T10:22:01.827Z,2.86
2023-02-02T10:24:31.697Z,2.90
2023-02-02T10:27:02.838Z,2.90
2023-02-02T10:29:49.070Z,2.95
2023-02-02T10:32:28.109Z,2.96
2023-02-02T10:35:13.175Z,2.98
2023-02-02T10:38:07.458Z,3.01
2023-02-02T10:41:06.912Z,3.03
2023-02-02T10:43:45.850Z,3.06
2023-02-02T10:46:42.547Z,3.12
2023-02-02T10:49:17.112Z,3.15
2023-02-02T10:51:54.908Z,3.15
2023-02-02T10:54:53.893Z,3.15
2023-02-02T10:57:51.830Z,3.11
2023-02-02T11:00:44.190Z,3.14
2023-02-02T11:03:16.413Z,3.11
2023-02-02T11:05:43.367Z,3.09
2023-02-02T11:08:36.139Z,3.06
2023-02-02T11:11:17.156Z,3.02
2023-02-02T11:13:50.923Z,3.00
2023-02-02T11:16:19.025Z,3.00
2023-02-02T11:18:46.622Z,2.98
2023-02-02T11:21:20.481Z,2.98
2023-02-02T11:24:05.044Z,3.00
2023-02-02T11:27:17.837Z,3.01
2023-02-02T11:29:52.481Z,3.04
2023-02-02T11:32:27.972Z,3.01
2023-02-02T11:35:06.771Z,2.97
2023-02-02T11:37:39.879Z,3.00
2023-02-02T11:40:40.019Z,2.98
2023-02-02T11:43:19.045Z,2.97
2023-02-02T11:45:53.487Z,2.98
2023-02-02T11:48:24.502Z,2.99
2023-02-02T11:50:55.513Z,2.98
2023-02-02T11:53:47.952Z,2.99
2023-02-02T11:56:25.180Z,3.04
2023-02-02T11:58:53.633Z,3.06
2023-02-02T12:01:39.430Z,3.10
2023-02-02T12:04:20.913Z,3.13
2023-02-02T12:06:49.354Z,3.12
2023-02-02T12:09:24.834Z,3.14
2023-02-02T12:12:28.532Z,3.12
2023-02-02T12:15:26.872Z,3.15
2023-02-02T12:18:06.570Z,3.13
2023-02-02T12:21:06.960Z,3.17
2023-02-02T12:23:55.506Z,3.21
2023-02-02T12:26:28.874Z,3.20
2023-02-02T12:29:15.568Z,3.22
2023-02-02T12:31:49.935Z,3.21
2023-02-02T12:34:41.904Z,3.22
2023-02-02T12:37:45.854Z,3.22
2023-02-02T12:40:50.333Z,3.19
2023-02-02T12:43:23.862Z,3.18
2023-02-02T12:45:51.364Z,3.17
2023-02-02T12:48:37.830Z,3.16
2023-02-02T12:51:10.779Z,3.17
2023-02-02T13:00:13.202Z,3.22
2023-02-02T13:03:09.310Z,3.23
2023-02-02T13:09:19.928Z,3.25
2023-02-02T13:11:54.004Z,3.27
2023-02-02T13:14:27.765Z,3.29
2023-02-02T13:17:00.959Z,3.28
2023-02-02T13:19:41.605Z,3.27
2023-02-02T13:22:34.577Z,3.24
2023-02-02T13:25:05.792Z,3.26
2023-02-02T13:30:32.906Z,3.26
2023-02-02T13:33:05.240Z,3.21
2023-02-02T13:35:55.561Z,3.21
2023-02-02T13:38:28.097Z,3.16
2023-02-02T13:40:57.541Z,3.14
2023-02-02T13:43:33.325Z,3.12
2023-02-02T13:46:27.842Z,3.07
2023-02-02T13:49:01.582Z,3.09
2023-02-02T13:51:51.775Z,3.03
2023-02-02T13:54:40.530Z,3.08
2023-02-02T13:57:27.861Z,3.07
2023-02-02T14:00:19.968Z,3.09
2023-02-02T14:02:54.672Z,3.12
2023-02-02T14:05:40.969Z,3.09
2023-02-02T14:08:15.847Z,3.07
2023-02-02T14:10:56.284Z,3.08
2023-02-02T14:13:32.951Z,3.05
2023-02-02T14:16:03.397Z,3.03
2023-02-02T14:18:48.876Z,3.15
2023-02-02T14:21:31.511Z,3.08
2023-02-02T14:24:04.874Z,3.09
2023-02-02T14:26:59.015Z,3.01
2023-02-02T14:29:28.942Z,2.96
2023-02-02T14:31:59.468Z,2.97
2023-02-02T14:34:44.841Z,2.98
2023-02-02T14:37:23.899Z,2.92
2023-02-02T14:39:58.920Z,2.92
2023-02-02T14:42:36.273Z,2.79
2023-02-02T14:45:19.981Z,2.78
2023-02-02T14:47:53.696Z,2.82
2023-02-02T14:50:28.955Z,2.75
2023-02-02T14:53:41.223Z,2.75
2023-02-02T14:56:16.245Z,2.75
2023-02-02T14:58:56.214Z,2.80
2023-02-02T15:01:32.112Z,2.84
2023-02-02T15:04:20.847Z,2.79
2023-02-02T15:06:51.894Z,2.76
2023-02-02T15:09:20.326Z,2.78
2023-02-02T15:12:01.747Z,2.75
2023-02-02T15:14:42.970Z,2.76
2023-02-02T15:17:40.032Z,2.79
2023-02-02T15:20:18.528Z,2.78
2023-02-02T15:23:31.831Z,2.78
2023-02-02T15:26:15.168Z,2.72
2023-02-02T15:29:15.938Z,2.75
2023-02-02T15:31:46.389Z,2.70
2023-02-02T15:34:21.973Z,2.71
2023-02-02T15:36:56.850Z,2.70
2023-02-02T15:39:38.389Z,2.63
2023-02-02T15:42:17.021Z,2.62
2023-02-02T15:44:44.507Z,2.58
2023-02-02T15:47:24.374Z,2.56
2023-02-02T15:49:52.194Z,2.54
2023-02-02T15:52:28.021Z,2.54
2023-02-02T15:55:29.278Z,2.54
2023-02-02T15:57:57.106Z,2.53
2023-02-02T16:00:31.361Z,2.57
2023-02-02T16:03:16.150Z,2.54
2023-02-02T16:05:50.587Z,2.51
2023-02-02T16:08:23.409Z,2.54
2023-02-02T16:10:50.976Z,2.48
2023-02-02T16:13:27.866Z,2.46
2023-02-02T16:16:25.797Z,2.44
2023-02-02T16:19:26.859Z,2.41
2023-02-02T16:21:59.093Z,2.36
2023-02-02T16:24:30.529Z,2.34
2023-02-02T16:27:01.926Z,2.34
2023-02-02T16:30:04.406Z,2.32
2023-02-02T16:32:32.583Z,2.32
2023-02-02T16:35:01.414Z,2.31
2023-02-02T16:37:31.875Z,2.31
2023-02-02T16:40:27.137Z,2.24
2023-02-02T16:43:19.387Z,2.23
2023-02-02T16:45:57.723Z,2.12
2023-02-02T16:48:31.897Z,2.08
2023-02-02T16:51:29.051Z,2.10
2023-02-02T16:54:08.909Z,2.10
2023-02-02T16:56:45.126Z,2.16
2023-02-02T16:59:31.878Z,2.19
2023-02-02T17:02:18.739Z,2.21
2023-02-02T17:04:56.157Z,2.19
2023-02-02T17:07:24.537Z,2.18
2023-02-02T17:10:19.952Z,2.17
2023-02-02T17:12:48.970Z,2.15
2023-02-02T17:15:18.474Z,2.16
2023-02-02T17:17:47.614Z,2.13
2023-02-02T17:20:16.090Z,2.15
2023-02-02T17:22:52.977Z,2.11
2023-02-02T17:25:27.309Z,2.07
2023-02-02T17:28:22.361Z,2.05
2023-02-02T17:31:16.285Z,2.05
2023-02-02T17:33:44.372Z,2.02
2023-02-02T17:36:17.175Z,2.04
2023-02-02T17:38:48.886Z,2.02
2023-02-02T17:41:16.491Z,2.01
2023-02-02T17:43:45.981Z,2.00
2023-02-02T17:46:13.234Z,1.94
2023-02-02T17:48:41.467Z,1.95
2023-02-02T17:51:17.820Z,1.88
2023-02-02T17:53:48.770Z,1.90
2023-02-02T17:56:15.755Z,1.91
2023-02-02T17:58:43.699Z,1.94
2023-02-02T18:01:12.314Z,1.96
2023-02-02T18:03:41.474Z,1.94
2023-02-02T18:06:10.833Z,1.96
2023-02-02T18:08:41.804Z,1.94
2023-02-02T18:11:13.906Z,1.95
2023-02-02T18:13:43.237Z,1.96
2023-02-02T18:19:03.975Z,2.00
2023-02-02T18:21:30.748Z,1.97
2023-02-02T18:23:58.643Z,1.98
2023-02-02T18:26:30.940Z,1.94
2023-02-02T18:28:58.775Z,1.99
2023-02-02T18:31:26.771Z,1.98
2023-02-02T18:34:00.287Z,1.90
2023-02-02T18:39:20.907Z,1.89
2023-02-02T18:41:47.941Z,1.86
2023-02-02T18:44:17.940Z,1.85
2023-02-02T18:46:49.070Z,1.81
2023-02-02T18:49:16.197Z,1.84
2023-02-02T18:55:01.259Z,1.83
2023-02-02T18:57:32.022Z,1.83
2023-02-02T18:59:59.416Z,1.79
2023-02-02T19:02:26.725Z,1.79
2023-02-02T19:04:55.391Z,1.83
2023-02-02T19:07:22.872Z,1.83
2023-02-02T19:10:02.307Z,1.78
2023-02-02T19:12:39.397Z,1.78
2023-02-02T19:15:13.736Z,1.72
2023-02-02T19:17:54.036Z,1.76
2023-02-02T19:20:26.591Z,1.73
2023-02-02T19:23:13.940Z,1.79
2023-02-02T19:25:47.102Z,1.80
2023-02-02T19:28:46.539Z,1.82
2023-02-02T19:31:17.304Z,1.86
2023-02-02T19:33:53.461Z,1.84
2023-02-02T19:36:26.588Z,1.83
2023-02-02T19:39:09.359Z,1.84
2023-02-02T19:41:38.872Z,1.90
2023-02-02T19:44:18.978Z,1.89
2023-02-02T19:46:52.767Z,1.90
2023-02-02T19:49:32.114Z,1.95
2023-02-02T19:52:03.110Z,1.95
2023-02-02T19:54:45.800Z,2.00
2023-02-02T19:57:48.228Z,1.98
2023-02-02T20:00:30.421Z,1.99
2023-02-02T20:03:07.461Z,1.99
2023-02-02T20:05:43.440Z,1.99
2023-02-02T20:08:23.180Z,1.99
2023-02-02T20:10:54.035Z,1.98
2023-02-02T20:13:49.749Z,1.96
2023-02-02T20:16:28.372Z,1.95
2023-02-02T20:18:59.023Z,1.94
2023-02-02T20:21:53.550Z,1.93
2023-02-02T20:24:27.409Z,1.93
2023-02-02T20:26:59.211Z,1.94
2023-02-02T20:29:38.618Z,1.88
2023-02-02T20:32:16.243Z,1.88
2023-02-02T20:34:45.974Z,1.79
2023-02-02T20:37:16.997Z,1.82
2023-02-02T20:39:55.379Z,1.86
2023-02-02T20:42:25.023Z,1.87
2023-02-02T20:45:18.324Z,1.90
2023-02-02T20:47:52.127Z,1.94
2023-02-02T20:50:44.273Z,1.99
2023-02-02T20:53:36.087Z,1.95
2023-02-02T20:56:03.264Z,1.91
2023-02-02T21:01:23.097Z,1.90
2023-02-02T21:03:52.062Z,1.93
2023-02-02T21:09:13.060Z,1.90
2023-02-02T21:11:39.773Z,1.93
2023-02-02T21:14:07.072Z,1.85
2023-02-02T21:16:34.169Z,1.85
2023-02-02T21:19:01.099Z,1.83
2023-02-02T21:21:53.999Z,1.81
2023-02-02T21:24:21.728Z,1.83
2023-02-02T21:26:52.134Z,1.85
2023-02-02T21:29:19.764Z,1.78
2023-02-02T21:31:53.173Z,1.79
2023-02-02T21:34:21.533Z,1.75
2023-02-02T21:36:49.343Z,1.72
2023-02-02T21:39:41.979Z,1.84
2023-02-02T21:42:09.362Z,1.88
2023-02-02T21:44:40.231Z,1.91
2023-02-02T21:47:37.232Z,1.88
2023-02-02T21:50:25.559Z,1.81
2023-02-02T21:53:17.658Z,1.85
2023-02-02T21:55:51.416Z,1.82
2023-02-02T21:58:36.927Z,1.85
2023-02-02T22:01:27.220Z,1.86
2023-02-02T22:03:55.534Z,1.91
2023-02-02T22:06:28.985Z,1.93
2023-02-02T22:09:14.301Z,1.98
2023-02-02T22:12:01.997Z,1.90
2023-02-02T22:14:41.525Z,1.95
2023-02-02T22:17:14.585Z,2.02
2023-02-02T22:19:43.788Z,1.95
2023-02-02T22:22:27.987Z,1.95
2023-02-02T22:25:04.554Z,1.93
2023-02-02T22:27:45.680Z,1.91
2023-02-02T22:30:33.222Z,1.93
2023-02-02T22:33:00.125Z,1.90
2023-02-02T22:35:26.885Z,1.97
2023-02-02T22:37:54.451Z,1.98
2023-02-02T22:40:21.294Z,1.96
2023-02-02T22:42:52.331Z,1.95
2023-02-02T22:45:19.443Z,1.91
2023-02-02T22:47:47.088Z,1.97
2023-02-02T22:50:19.995Z,1.97
2023-02-02T22:52:50.816Z,1.98
2023-02-02T22:55:18.647Z,1.97
2023-02-02T22:57:45.552Z,1.92
2023-02-02T23:00:15.247Z,1.90
2023-02-02T23:03:09.222Z,1.92
2023-02-02T23:05:36.131Z,1.94
2023-02-02T23:08:02.819Z,1.92
2023-02-02T23:10:30.601Z,1.90
2023-02-02T23:12:57.431Z,1.85
2023-02-02T23:15:24.639Z,1.80
2023-02-02T23:17:55.058Z,1.78
2023-02-02T23:20:22.029Z,1.81
2023-02-02T23:22:50.508Z,1.76
2023-02-02T23:25:20.559Z,1.74
2023-02-02T23:27:48.074Z,1.71
2023-02-02T23:30:15.985Z,1.79
2023-02-02T23:32:43.434Z,1.81
2023-02-02T23:35:11.308Z,1.80
2023-02-02T23:37:38.808Z,1.86
2023-02-02T23:40:07.258Z,1.87
2023-02-02T23:42:35.010Z,1.83
2023-02-02T23:45:01.768Z,1.83
2023-02-02T23:47:28.716Z,1.87
2023-02-02T23:49:56.021Z,1.89
2023-02-02T23:52:23.262Z,1.90
2023-02-02T23:54:50.718Z,1.93
2023-02-02T23:57:17.557Z,1.96
2023-02-02T23:59:44.330Z,1.98
